Evesham Township, New Jersey
Current Conditions -  °F | °C
As of 10:54 PM on Tuesday 21 Oct 2014 (Local Time) from KVAY Reporting Station
Clear Clear  
Wind Chill: 55°   Ceiling: Unl
Heat Index: 55°   Visibility: 10mi
Dew Point: 51°   Wind: 3mph
Humidity: 86%   Direction: 30°NNE
Pressure: 29.88"   Gusts: NA
Location:  39.8786°N, 74.8969°W
Report Text: KVAY 220254Z AUTO 03003KT 10SM CLR 13/11 A2988 RMK AO2 SLP119 T01280106 51015
Loading
Personal Weather Stations






























Interactive Weather Map
Tropical Storm Tracking
New forecast layout! Learn more

10-Day Weather Forecast

Advertisements
Track Severe Weather on mobile